Data for 01/09/2016

Time Sea-Level Adjusted Pressure Absolute Pressure Temperature Relative Humidity Dew Point   
(mb) (inHg) (mb) (inHg) (C) (F) (%) (C) (F)
00:05 1017 30.03 847 25.01 -8.7 16.4 83 -11.1 12.1
00:10 1017 30.03 847 25.01 -8.7 16.4 84 -11 12.2
00:15 1018 30.06 847 25.01 -8.6 16.5 84 -10.8 12.6
00:20 1018 30.06 847 25.01 -8.5 16.6 84 -10.7 12.7
00:25 1018 30.06 847 25.01 -8.4 16.9 83 -10.8 12.6
00:30 1017 30.03 847 25.01 -8.4 16.8 83 -10.8 12.5
00:35 1017 30.03 847 25.01 -8.6 16.6 84 -10.7 12.7
00:40 1017 30.03 847 25.01 -8.6 16.6 84 -10.8 12.6
00:45 1017 30.03 847 25.01 -8.6 16.6 84 -10.8 12.6
00:50 1017 30.03 847 25.01 -8.6 16.6 84 -10.8 12.5
00:55 1017 30.03 847 25.01 -8.6 16.5 84 -10.9 12.4
01:00 1017 30.03 847 25.01 -8.7 16.3 84 -10.9 12.3
01:05 1017 30.03 847 25.01 -8.7 16.3 84 -10.9 12.4
01:10 1017 30.03 847 25.01 -8.7 16.3 85 -10.8 12.5
01:15 1017 30.03 847 25.01 -8.7 16.3 86 -10.7 12.7
01:20 1017 30.03 846 24.98 -8.7 16.3 86 -10.7 12.7
01:25 1017 30.03 847 25.01 -8.7 16.3 86 -10.7 12.8
01:30 1017 30.03 847 25.01 -8.7 16.4 86 -10.6 12.9
01:35 1017 30.03 847 25.01 -8.7 16.3 86 -10.6 12.8
01:40 1017 30.03 847 25.01 -8.7 16.3 86 -10.7 12.8
01:45 1017 30.03 847 25.01 -8.7 16.3 86 -10.7 12.8
01:50 1017 30.03 847 25.01 -8.7 16.3 86 -10.7 12.8
01:55 1017 30.03 847 25.01 -8.7 16.3 85 -10.8 12.6
02:00 1017 30.03 847 25.01 -8.7 16.3 85 -10.8 12.6
02:05 1017 30.03 847 25.01 -8.7 16.3 85 -10.8 12.6
02:10 1017 30.03 847 25.01 -8.7 16.4 85 -10.8 12.5
02:15 1017 30.03 847 25.01 -8.7 16.3 85 -10.8 12.6
02:20 1017 30.03 846 24.98 -8.7 16.3 86 -10.7 12.8
02:25 1017 30.03 847 25.01 -8.7 16.3 86 -10.6 12.9
02:30 1017 30.03 847 25.01 -8.6 16.4 86 -10.6 12.9
02:35 1017 30.03 846 24.98 -8.6 16.5 86 -10.6 12.9
02:40 1017 30.03 846 24.98 -8.5 16.7 85 -10.5 13
02:45 1017 30.03 846 24.98 -8.5 16.8 86 -10.4 13.3
02:50 1017 30.03 846 24.98 -8.4 16.8 85 -10.5 13.1
02:55 1017 30.03 846 24.98 -8.4 16.8 85 -10.5 13.1
03:00 1017 30.03 846 24.98 -8.4 16.9 85 -10.5 13
03:05 1017 30.03 846 24.98 -8.3 17 83 -10.7 12.8
03:10 1017 30.03 846 24.98 -8.3 17.1 83 -10.6 12.8
03:15 1017 30.03 846 24.98 -8.1 17.4 82 -10.6 12.9
03:20 1017 30.03 846 24.98 -8 17.7 82 -10.5 13.2
03:25 1017 30.03 846 24.98 -7.9 17.8 83 -10.3 13.4
03:30 1017 30.03 847 25.01 -7.9 17.8 83 -10.4 13.4
03:35 1017 30.03 847 25.01 -8 17.7 83 -10.3 13.4
03:40 1017 30.03 847 25.01 -8.1 17.4 84 -10.3 13.4
03:45 1017 30.03 847 25.01 -8.2 17.2 85 -10.3 13.4
03:50 1017 30.03 847 25.01 -8.3 17.2 85 -10.4 13.4
03:55 1017 30.03 847 25.01 -8.3 17 85 -10.4 13.3
04:00 1017 30.03 847 25.01 -8.4 16.9 85 -10.5 13.2
04:05 1017 30.03 847 25.01 -8.4 16.9 85 -10.5 13.1
04:10 1017 30.03 847 25.01 -8.3 17.1 84 -10.5 13.1
04:15 1017 30.03 847 25.01 -8.2 17.2 85 -10.4 13.3
04:20 1017 30.03 847 25.01 -8.2 17.2 85 -10.4 13.3
04:25 1017 30.03 847 25.01 -8.2 17.2 85 -10.3 13.4
04:30 1017 30.03 847 25.01 -8.1 17.3 84 -10.4 13.3
04:35 1017 30.03 847 25.01 -8.1 17.5 84 -10.3 13.4
04:40 1017 30.03 847 25.01 -8 17.5 84 -10.3 13.4
04:45 1017 30.03 846 24.98 -8 17.7 83 -10.3 13.4
04:50 1017 30.03 846 24.98 -8 17.7 83 -10.3 13.4
04:55 1017 30.03 846 24.98 -8 17.6 84 -10.3 13.4
05:00 1017 30.03 846 24.98 -8.2 17.3 84 -10.3 13.4
05:05 1017 30.03 846 24.98 -8.1 17.4 86 -10.1 13.8
05:10 1017 30.03 846 24.98 -7.8 17.9 84 -10.1 13.8
05:15 1017 30.03 846 24.98 -7.8 18 84 -10.1 13.8
05:20 1017 30.03 846 24.98 -7.8 18 83 -10.1 13.8
05:25 1017 30.03 846 24.98 -7.8 18 84 -10.1 13.8
05:30 1017 30.03 846 24.98 -7.6 18.3 83 -10.1 13.9
05:35 1017 30.03 846 24.98 -7.6 18.4 83 -10 13.9
05:40 1017 30.03 846 24.98 -7.5 18.5 83 -9.9 14.3
05:45 1017 30.03 846 24.98 -7.4 18.7 83 -9.9 14.2
05:50 1017 30.03 846 24.98 -7.4 18.7 83 -9.8 14.4
05:55 1017 30.03 846 24.98 -7.4 18.8 83 -9.8 14.4
06:00 1017 30.03 847 25.01 -7.4 18.7 83 -9.8 14.4
06:05 1017 30.03 847 25.01 -7.4 18.7 83 -9.8 14.4
06:10 1017 30.03 847 25.01 -7.5 18.5 84 -9.8 14.3
06:15 1017 30.03 847 25.01 -7.5 18.5 84 -9.8 14.3
06:20 1017 30.03 847 25.01 -7.7 18.2 84 -9.9 14.2
06:25 1017 30.03 847 25.01 -7.9 17.7 85 -10 14.1
06:30 1017 30.03 847 25.01 -8 17.6 85 -10.1 13.9
06:35 1017 30.03 847 25.01 -8 17.6 85 -10.1 13.8
06:40 1017 30.03 847 25.01 -8.1 17.5 86 -10.1 13.9
06:45 1017 30.03 847 25.01 -8 17.6 85 -10.1 13.9
06:50 1017 30.03 847 25.01 -8 17.7 85 -10.1 13.8
06:55 1017 30.03 847 25.01 -7.9 17.8 85 -10 14
07:00 1017 30.03 847 25.01 -7.8 18 85 -10 14.1
07:05 1017 30.03 847 25.01 -7.7 18.1 84 -9.9 14.1
07:10 1017 30.03 847 25.01 -7.7 18.1 84 -10 14.1
07:15 1017 30.03 847 25.01 -7.7 18.1 84 -10 14.1
07:20 1017 30.03 847 25.01 -7.8 18 85 -9.9 14.2
07:25 1017 30.03 847 25.01 -7.9 17.8 86 -9.9 14.2
07:30 1017 30.03 847 25.01 -7.8 18 86 -9.8 14.4
07:35 1017 30.03 847 25.01 -7.7 18.2 86 -9.6 14.7
07:40 1017 30.03 846 24.98 -7.6 18.4 85 -9.6 14.7
07:45 1017 30.03 846 24.98 -7.6 18.4 85 -9.6 14.7
07:50 1017 30.03 846 24.98 -7.6 18.3 86 -9.6 14.7
07:55 1017 30.03 846 24.98 -7.7 18.1 87 -9.6 14.8
08:00 1017 30.03 846 24.98 -7.7 18.1 87 -9.6 14.8
08:05 1017 30.03 847 25.01 -7.6 18.4 87 -9.4 15.1
08:10 1017 30.03 847 25.01 -7.4 18.6 86 -9.4 15.1
08:15 1017 30.03 846 24.98 -7.5 18.5 86 -9.4 15
08:20 1017 30.03 846 24.98 -7.5 18.4 86 -9.5 14.9
08:25 1017 30.03 846 24.98 -7.5 18.6 85 -9.5 14.9
08:30 1017 30.03 846 24.98 -7.4 18.7 86 -9.4 15.1
08:35 1017 30.03 846 24.98 -7.2 19 85 -9.4 15.1
08:40 1017 30.03 846 24.98 -7.4 18.7 85 -9.4 15
08:45 1017 30.03 846 24.98 -7.6 18.3 86 -9.6 14.8
08:50 1017 30.03 846 24.98 -7.6 18.4 86 -9.6 14.8
08:55 1017 30.03 846 24.98 -7.6 18.3 86 -9.6 14.7
09:00 1017 30.03 846 24.98 -7.6 18.3 85 -9.6 14.6
09:05 1017 30.03 846 24.98 -7.6 18.4 85 -9.6 14.7
09:10 1017 30.03 846 24.98 -7.6 18.4 85 -9.6 14.7
09:15 1017 30.03 847 25.01 -7.5 18.4 86 -9.6 14.8
09:20 1017 30.03 847 25.01 -7.5 18.5 86 -9.5 14.9
09:25 1017 30.03 847 25.01 -7.3 18.8 85 -9.4 15
09:30 1017 30.03 847 25.01 -7.3 18.9 85 -9.4 15.1
09:35 1017 30.03 847 25.01 -7.2 19 84 -9.5 14.9
09:40 1017 30.03 847 25.01 -7.3 18.9 85 -9.4 15.1
09:45 1018 30.06 847 25.01 -7.1 19.3 84 -9.3 15.3
09:50 1018 30.06 847 25.01 -6.8 19.7 84 -9.1 15.7
09:55 1018 30.06 847 25.01 -6.4 20.4 82 -9 15.9
10:00 1018 30.06 847 25.01 -6.3 20.6 82 -8.9 16
10:05 1018 30.06 847 25.01 -6.3 20.7 82 -8.9 16
10:10 1018 30.06 847 25.01 -6.2 20.9 82 -8.8 16.2
10:15 1018 30.06 847 25.01 -6.1 21.1 82 -8.7 16.3
10:20 1018 30.06 847 25.01 -6 21.3 81 -8.7 16.3
10:25 1018 30.06 847 25.01 -5.8 21.6 81 -8.6 16.6
10:30 1018 30.06 847 25.01 -5.5 22 80 -8.5 16.6
10:35 1018 30.06 847 25.01 -5.5 22.2 79 -8.5 16.6
10:40 1018 30.06 847 25.01 -5.3 22.5 79 -8.4 16.8
10:45 1018 30.06 847 25.01 -5.1 22.8 78 -8.4 17
10:50 1018 30.06 847 25.01 -4.9 23.2 77 -8.2 17.2
10:55 1018 30.06 847 25.01 -4.6 23.7 76 -8.2 17.2
11:00 1018 30.06 847 25.01 -4.2 24.4 75 -8 17.5
11:05 1018 30.06 847 25.01 -4.1 24.6 75 -8 17.7
11:10 1018 30.06 847 25.01 -4.2 24.5 75 -8 17.6
11:15 1018 30.06 847 25.01 -4.2 24.4 75 -8 17.7
11:20 1018 30.06 847 25.01 -4 24.9 74 -8 17.6
11:25 1018 30.06 847 25.01 -4 24.9 74 -7.9 17.8
11:30 1018 30.06 847 25.01 -4.1 24.6 75 -7.9 17.7
11:35 1018 30.06 847 25.01 -4.3 24.3 75 -8.1 17.5
11:40 1018 30.06 847 25.01 -4.4 24.1 75 -8.2 17.3
11:45 1018 30.06 847 25.01 -4.5 23.8 75 -8.2 17.2
11:50 1018 30.06 847 25.01 -4.4 24.1 74 -8.3 17.1
11:55 1018 30.06 847 25.01 -4 24.8 72 -8.4 17
12:00 1018 30.06 847 25.01 -3.7 25.3 70 -8.4 16.8
12:05 1018 30.06 847 25.01 -3.3 26.1 68 -8.3 17
12:10 1018 30.06 847 25.01 -3.1 26.3 68 -8.3 17.1
12:15 1018 30.06 847 25.01 -3.2 26.3 69 -8.2 17.3
12:20 1018 30.06 847 25.01 -2.9 26.7 68 -8.1 17.4
12:25 1018 30.06 847 25.01 -2.9 26.7 68 -8.1 17.5
12:30 1018 30.06 847 25.01 -3.1 26.5 68 -8.1 17.3
12:35 1018 30.06 847 25.01 -3.1 26.5 68 -8.1 17.5
12:40 1018 30.06 847 25.01 -2.8 27 67 -8.1 17.4
12:45 1018 30.06 847 25.01 -2.4 27.6 65 -8.1 17.5
12:50 1018 30.06 847 25.01 -2 28.4 64 -7.9 17.8
12:55 1018 30.06 847 25.01 -1.4 29.5 61 -7.9 17.8
13:00 1018 30.06 847 25.01 -1.2 29.8 62 -7.6 18.4
13:05 1018 30.06 847 25.01 -1.4 29.6 61 -8 17.7
13:10 1018 30.06 847 25.01 -1.3 29.6 62 -7.6 18.3
13:15 1018 30.06 847 25.01 -1.3 29.7 63 -7.4 18.6
13:20 1018 30.06 847 25.01 -1.2 29.8 63 -7.4 18.7
13:25 1018 30.06 847 25.01 -1.4 29.6 59 -8.3 17
13:30 1018 30.06 847 25.01 -1.3 29.6 60 -8.2 17.2
13:35 1018 30.06 847 25.01 -1.2 29.8 58 -8.5 16.8
13:40 1018 30.06 847 25.01 -1.2 29.8 59 -8.3 17.1
13:45 1018 30.06 847 25.01 -1.2 29.9 59 -8.2 17.3
13:50 1018 30.06 847 25.01 -0.8 30.5 58 -8.2 17.3
13:55 1018 30.06 847 25.01 -1.1 30.1 59 -8 17.6
14:00 1018 30.06 847 25.01 -1.1 30 59 -8.2 17.2
14:05 1018 30.06 847 25.01 -1 30.3 58 -8.1 17.4
14:10 1018 30.06 847 25.01 -0.5 31.1 57 -8 17.6
14:15 1017 30.03 847 25.01 -0.9 30.4 57 -8.4 16.8
14:20 1017 30.03 847 25.01 -0.8 30.6 54 -9 15.8
14:25 1017 30.03 847 25.01 0 32.1 51 -9 15.8
14:30 1017 30.03 847 25.01 0.2 32.3 51 -8.7 16.4
14:35 1017 30.03 847 25.01 0 32.1 52 -8.7 16.3
14:40 1017 30.03 847 25.01 0.3 32.5 51 -8.7 16.3
14:45 1017 30.03 847 25.01 0.4 32.6 52 -8.5 16.7
14:50 1017 30.03 847 25.01 0.6 33.1 51 -8.5 16.7
14:55 1017 30.03 847 25.01 0.5 32.9 54 -7.8 18
15:00 1017 30.03 847 25.01 0.1 32.1 54 -8.2 17.2
15:05 1017 30.03 846 24.98 0.8 33.4 50 -8.6 16.5
15:10 1017 30.03 846 24.98 1 33.8 50 -8.4 16.9
15:15 1017 30.03 846 24.98 1 33.8 48 -8.7 16.3
15:20 1017 30.03 846 24.98 0.9 33.7 48 -8.8 16.2
15:25 1017 30.03 846 24.98 0.8 33.5 49 -8.8 16.2
15:30 1017 30.03 846 24.98 1.7 35.1 46 -8.7 16.3
15:35 1017 30.03 846 24.98 1.8 35.3 44 -9.2 15.5
15:40 1017 30.03 846 24.98 1.5 34.8 44 -9.3 15.2
15:45 1017 30.03 846 24.98 1.4 34.4 44 -9.7 14.6
15:50 1017 30.03 846 24.98 1.6 34.8 43 -9.7 14.5
15:55 1017 30.03 846 24.98 1.7 35.1 43 -9.6 14.8
16:00 1017 30.03 846 24.98 1.7 35.1 46 -8.7 16.3
16:05 1017 30.03 847 25.01 1.6 34.9 42 -10.1 13.8
16:10 1017 30.03 847 25.01 1.3 34.3 40 -10.8 12.5
16:15 1017 30.03 847 25.01 1.1 33.9 41 -10.6 12.9
16:20 1017 30.03 847 25.01 0.9 33.7 47 -9.2 15.4
16:25 1017 30.03 847 25.01 0.3 32.6 46 -10 14
16:30 1017 30.03 847 25.01 -0.2 31.7 47 -10.1 13.8
16:35 1017 30.03 847 25.01 -0.4 31.2 47 -10.3 13.4
16:40 1017 30.03 847 25.01 -0.3 31.5 45 -10.8 12.6
16:45 1017 30.03 847 25.01 -0.3 31.5 45 -10.7 12.7
16:50 1017 30.03 847 25.01 -0.4 31.2 46 -10.7 12.8
16:55 1017 30.03 847 25.01 -0.5 31.1 47 -10.5 13.2
17:00 1017 30.03 847 25.01 -0.6 30.9 46 -10.9 12.3
17:05 1017 30.03 847 25.01 -0.5 31.1 48 -10.3 13.5
17:10 1017 30.03 847 25.01 -0.5 31.1 45 -11.1 12
17:15 1017 30.03 847 25.01 -0.2 31.7 45 -10.7 12.8
17:20 1018 30.06 847 25.01 -0.5 31.1 47 -10.5 13.1
17:25 1018 30.06 847 25.01 -0.6 30.9 47 -10.7 12.8
17:30 1018 30.06 847 25.01 -1 30.2 48 -10.8 12.6
17:35 1018 30.06 847 25.01 -1.1 30.1 48 -10.7 12.8
17:40 1018 30.06 847 25.01 -0.6 30.8 49 -10 14
17:45 1018 30.06 847 25.01 -0.7 30.8 53 -9.2 15.4
17:50 1018 30.06 847 25.01 -1 30.1 51 -10 14
17:55 1018 30.06 847 25.01 -1.4 29.6 49 -10.7 12.8
18:00 1018 30.06 847 25.01 -1.5 29.2 50 -10.6 12.9
18:05 1018 30.06 847 25.01 -1.7 28.9 50 -10.8 12.6
18:10 1018 30.06 847 25.01 -1.7 28.9 51 -10.7 12.8
18:15 1018 30.06 847 25.01 -1.7 28.9 50 -10.8 12.6
18:20 1018 30.06 847 25.01 -1.7 28.9 50 -11 12.3
18:25 1018 30.06 847 25.01 -1.8 28.7 52 -10.4 13.3
18:30 1018 30.06 847 25.01 -1.8 28.7 51 -10.7 12.8
18:35 1018 30.06 847 25.01 -1.9 28.6 49 -11.2 11.8
18:40 1018 30.06 847 25.01 -2 28.5 50 -11 12.3
18:45 1018 30.06 847 25.01 -2.1 28.3 53 -10.5 13.2
18:50 1018 30.06 847 25.01 -2.2 28.1 54 -10.3 13.5
18:55 1018 30.06 847 25.01 -2.3 27.9 55 -10.2 13.6
19:00 1018 30.06 847 25.01 -2.3 27.8 55 -10.2 13.7
19:05 1018 30.06 847 25.01 -2.4 27.7 55 -10.4 13.4
19:10 1018 30.06 847 25.01 -2.3 27.8 54 -10.3 13.4
19:15 1018 30.06 847 25.01 -2.3 27.9 53 -10.6 12.9
19:20 1018 30.06 847 25.01 -2.2 28 51 -11 12.3
19:25 1018 30.06 847 25.01 -2.2 28.1 53 -10.6 12.9
19:30 1018 30.06 847 25.01 -2.2 28.1 49 -11.6 11.1
19:35 1018 30.06 847 25.01 -2.1 28.3 49 -11.3 11.6
19:40 1018 30.06 847 25.01 -2 28.3 49 -11.5 11.3
19:45 1018 30.06 847 25.01 -2 28.4 47 -12 10.4
19:50 1018 30.06 847 25.01 -2.1 28.3 49 -11.5 11.4
19:55 1018 30.06 847 25.01 -2.2 28 50 -11.3 11.6
20:00 1018 30.06 847 25.01 -2.3 27.9 49 -11.6 11.2
20:05 1018 30.06 847 25.01 -2.3 27.9 49 -11.6 11.1
20:10 1018 30.06 847 25.01 -2.2 28 49 -11.7 11
20:15 1018 30.06 847 25.01 -2.2 28 49 -11.6 11.1
20:20 1018 30.06 847 25.01 -2.3 27.9 50 -11.5 11.3
20:25 1018 30.06 847 25.01 -2.4 27.7 51 -11.2 11.8
20:30 1018 30.06 847 25.01 -2.4 27.6 50 -11.4 11.5
20:35 1018 30.06 847 25.01 -2.5 27.5 50 -11.5 11.3
20:40 1018 30.06 847 25.01 -2.5 27.5 51 -11.4 11.5
20:45 1018 30.06 847 25.01 -2.5 27.4 50 -11.5 11.3
20:50 1018 30.06 847 25.01 -2.5 27.5 50 -11.5 11.3
20:55 1018 30.06 847 25.01 -2.5 27.5 50 -11.5 11.3
21:00 1018 30.06 847 25.01 -2.5 27.5 51 -11.3 11.7
21:05 1018 30.06 847 25.01 -2.5 27.5 50 -11.6 11.1
21:10 1018 30.06 847 25.01 -2.5 27.5 53 -11 12.3
21:15 1018 30.06 847 25.01 -2.6 27.4 54 -10.6 13
21:20 1018 30.06 847 25.01 -2.7 27.2 55 -10.6 13
21:25 1018 30.06 847 25.01 -2.8 27 54 -10.8 12.6
21:30 1018 30.06 847 25.01 -2.8 27 55 -10.6 13
21:35 1018 30.06 847 25.01 -2.7 27.1 51 -11.6 11.2
21:40 1018 30.06 847 25.01 -2.4 27.7 47 -12.3 9.9
21:45 1018 30.06 847 25.01 -2.1 28.2 48 -11.9 10.7
21:50 1018 30.06 847 25.01 -2.2 28.1 48 -11.8 10.8
21:55 1018 30.06 848 25.04 -2.1 28.1 50 -11.4 11.6
22:00 1019 30.09 848 25.04 -2.2 28 53 -10.5 13.1
22:05 1019 30.09 848 25.04 -2.6 27.4 54 -10.6 12.9
22:10 1019 30.09 848 25.04 -2.8 27 55 -10.6 12.9
22:15 1019 30.09 848 25.04 -2.9 26.7 55 -10.7 12.7
22:20 1019 30.09 848 25.04 -2.9 26.7 55 -10.7 12.7
22:25 1019 30.09 848 25.04 -2.8 27 53 -11.1 12.1
22:30 1019 30.09 848 25.04 -2.7 27.1 52 -11.3 11.6
22:35 1019 30.09 848 25.04 -2.7 27.2 49 -11.9 10.7
22:40 1019 30.09 848 25.04 -2.5 27.5 50 -11.5 11.4
22:45 1018 30.06 848 25.04 -2.6 27.4 52 -11.2 11.8
22:50 1019 30.09 848 25.04 -2.6 27.3 51 -11.3 11.6
22:55 1019 30.09 848 25.04 -2.6 27.4 50 -11.7 10.9
23:00 1019 30.09 848 25.04 -2.5 27.6 50 -11.6 11.2
23:05 1018 30.06 848 25.04 -2.5 27.5 50 -11.5 11.2
23:10 1019 30.09 848 25.04 -2.6 27.3 52 -11.1 12
23:15 1019 30.09 848 25.04 -2.6 27.3 53 -10.9 12.4
23:20 1019 30.09 848 25.04 -2.6 27.3 52 -11.1 12.1
23:25 1019 30.09 848 25.04 -2.6 27.4 52 -11 12.2
23:30 1019 30.09 848 25.04 -2.6 27.3 54 -10.8 12.6
23:35 1019 30.09 848 25.04 -2.6 27.3 55 -10.6 13
23:40 1019 30.09 848 25.04 -2.7 27.1 56 -10.3 13.5
23:45 1019 30.09 848 25.04 -2.8 27 58 -9.9 14.2
23:50 1019 30.09 848 25.04 -3 26.6 60 -9.6 14.6
23:55 1019 30.09 848 25.04 -3.1 26.4 60 -9.7 14.5
24:00 1019 30.09 848 25.04 -3.1 26.5 60 -9.7 14.5